createdAt,value
2018-05-16T00:01:48.769Z,63.50
2018-05-16T00:03:49.714Z,63.20
2018-05-16T00:05:50.655Z,63.00
2018-05-16T00:07:51.622Z,62.60
2018-05-16T00:09:53.223Z,62.60
2018-05-16T00:11:54.338Z,62.60
2018-05-16T00:13:55.526Z,62.50
2018-05-16T00:15:56.480Z,62.40
2018-05-16T00:17:57.745Z,62.40
2018-05-16T00:19:58.845Z,62.80
2018-05-16T00:22:00.932Z,62.80
2018-05-16T00:24:02.352Z,63.10
2018-05-16T00:26:03.526Z,63.10
2018-05-16T00:28:05.775Z,63.50
2018-05-16T00:30:07.237Z,63.60
2018-05-16T00:32:08.636Z,63.60
2018-05-16T00:34:09.743Z,63.40
2018-05-16T00:36:10.724Z,62.80
2018-05-16T00:38:12.117Z,63.10
2018-05-16T00:40:13.085Z,63.20
2018-05-16T00:42:14.044Z,63.70
2018-05-16T00:44:14.984Z,63.60
2018-05-16T00:46:16.090Z,63.60
2018-05-16T00:48:17.238Z,63.50
2018-05-16T00:50:18.179Z,64.30
2018-05-16T00:52:19.149Z,65.80
2018-05-16T00:54:21.283Z,64.20
2018-05-16T00:56:22.373Z,64.20
2018-05-16T00:58:23.330Z,64.20
2018-05-16T01:00:24.294Z,64.10
2018-05-16T01:02:25.254Z,63.80
2018-05-16T01:04:26.196Z,64.40
2018-05-16T01:06:27.134Z,64.50
2018-05-16T01:08:28.082Z,64.40
2018-05-16T01:10:29.058Z,64.40
2018-05-16T01:12:29.996Z,64.80
2018-05-16T01:14:30.927Z,64.90
2018-05-16T01:16:31.886Z,65.50
2018-05-16T01:18:33.205Z,65.50
2018-05-16T01:20:34.158Z,65.50
2018-05-16T01:22:35.485Z,66.00
2018-05-16T01:24:36.974Z,66.00
2018-05-16T01:28:45.653Z,66.10
2018-05-16T01:30:46.870Z,66.40
2018-05-16T01:32:47.810Z,66.20
2018-05-16T01:34:48.750Z,66.50
2018-05-16T01:36:49.701Z,66.20
2018-05-16T01:38:50.658Z,65.80
2018-05-16T01:40:51.970Z,66.40
2018-05-16T01:42:52.914Z,66.50
2018-05-16T01:44:53.871Z,66.10
2018-05-16T01:46:54.906Z,66.60
2018-05-16T01:49:08.204Z,66.80
2018-05-16T01:51:09.155Z,67.10
2018-05-16T01:53:10.462Z,66.70
2018-05-16T01:55:11.590Z,66.70
2018-05-16T01:57:12.531Z,67.20
2018-05-16T01:59:13.491Z,67.40
2018-05-16T02:01:14.817Z,67.50
2018-05-16T02:03:15.775Z,67.50
2018-05-16T02:05:17.104Z,67.80
2018-05-16T02:07:18.070Z,67.80
2018-05-16T02:09:19.002Z,67.10
2018-05-16T02:11:19.950Z,66.90
2018-05-16T02:13:20.907Z,67.00
2018-05-16T02:15:21.846Z,67.20
2018-05-16T02:17:22.795Z,67.30
2018-05-16T02:19:23.846Z,68.20
2018-05-16T02:21:24.816Z,68.40
2018-05-16T02:23:25.753Z,68.20
2018-05-16T02:25:26.704Z,68.10
2018-05-16T02:27:27.637Z,68.10
2018-05-16T02:29:28.595Z,68.10
2018-05-16T02:31:29.545Z,67.90
2018-05-16T02:33:30.503Z,67.60
2018-05-16T02:35:31.822Z,67.80
2018-05-16T02:37:32.850Z,67.80
2018-05-16T02:39:34.123Z,67.50
2018-05-16T02:41:35.422Z,68.00
2018-05-16T02:43:36.367Z,68.00
2018-05-16T02:45:37.327Z,68.20
2018-05-16T02:47:38.747Z,67.80
2018-05-16T02:49:39.601Z,67.80
2018-05-16T02:51:40.910Z,68.10
2018-05-16T02:53:41.911Z,68.10
2018-05-16T02:55:42.846Z,68.00
2018-05-16T02:57:43.786Z,68.00
2018-05-16T02:59:44.723Z,68.00
2018-05-16T03:01:45.678Z,67.80
2018-05-16T03:03:46.610Z,68.10
2018-05-16T03:05:47.549Z,68.10
2018-05-16T03:07:48.498Z,67.80
2018-05-16T03:09:49.455Z,68.10
2018-05-16T03:11:50.763Z,67.80
2018-05-16T03:13:51.714Z,67.80
2018-05-16T03:15:52.670Z,67.80
2018-05-16T03:17:53.988Z,68.00
2018-05-16T03:19:54.933Z,68.00
2018-05-16T03:21:56.252Z,68.80
2018-05-16T03:23:57.189Z,68.80
2018-05-16T03:25:58.138Z,69.10
2018-05-16T03:27:59.158Z,69.50
2018-05-16T03:30:00.020Z,69.90
2018-05-16T03:32:01.338Z,70.30
2018-05-16T03:34:02.291Z,70.30
2018-05-16T03:36:03.643Z,70.20
2018-05-16T03:38:04.952Z,70.60
2018-05-16T03:40:05.910Z,70.60
2018-05-16T03:42:07.530Z,70.40
2018-05-16T03:44:09.337Z,70.40
2018-05-16T03:46:10.270Z,70.40
2018-05-16T03:48:11.219Z,70.80
2018-05-16T03:50:12.158Z,71.00
2018-05-16T03:52:13.122Z,71.10
2018-05-16T03:54:14.066Z,71.90
2018-05-16T03:56:15.009Z,71.80
2018-05-16T03:58:28.391Z,72.60
2018-05-16T04:00:41.918Z,72.50
2018-05-16T04:02:55.346Z,73.10
2018-05-16T04:04:56.286Z,73.10
2018-05-16T04:06:57.238Z,72.70
2018-05-16T04:08:58.211Z,73.40
2018-05-16T04:10:59.529Z,74.30
2018-05-16T04:13:00.483Z,74.30
2018-05-16T04:15:01.810Z,74.60
2018-05-16T04:19:06.443Z,74.90
2018-05-16T04:21:07.386Z,74.90
2018-05-16T04:23:08.694Z,74.30
2018-05-16T04:25:09.643Z,74.30
2018-05-16T04:27:10.578Z,74.30
2018-05-16T04:29:11.518Z,74.40
2018-05-16T04:31:12.474Z,74.80
2018-05-16T04:33:13.794Z,74.90
2018-05-16T04:35:14.740Z,74.90
2018-05-16T04:37:16.054Z,74.30
2018-05-16T04:39:17.012Z,74.30
2018-05-16T04:41:17.957Z,74.30
2018-05-16T04:43:19.278Z,74.30
2018-05-16T04:47:27.895Z,74.80
2018-05-16T04:49:28.855Z,75.00
2018-05-16T04:51:30.174Z,74.60
2018-05-16T04:53:31.126Z,74.60
2018-05-16T04:55:32.098Z,74.40
2018-05-16T04:57:33.375Z,74.10
2018-05-16T04:59:34.322Z,74.10
2018-05-16T05:01:35.282Z,73.80
2018-05-16T05:03:36.613Z,74.10
2018-05-16T05:05:37.543Z,74.10
2018-05-16T05:07:38.605Z,74.10
2018-05-16T05:09:39.918Z,74.10
2018-05-16T05:11:40.854Z,74.10
2018-05-16T05:13:41.813Z,73.30
2018-05-16T05:15:43.130Z,72.50
2018-05-16T05:17:44.073Z,72.50
2018-05-16T05:19:45.415Z,73.10
2018-05-16T05:21:46.366Z,73.10
2018-05-16T05:23:47.682Z,72.80
2018-05-16T05:25:48.651Z,72.80
2018-05-16T05:27:49.584Z,72.60
2018-05-16T05:29:50.510Z,72.30
2018-05-16T05:31:51.833Z,72.70
2018-05-16T05:33:52.774Z,72.80
2018-05-16T05:35:54.081Z,72.30
2018-05-16T05:37:55.038Z,72.30
2018-05-16T05:39:55.994Z,72.70
2018-05-16T05:41:57.326Z,71.70
2018-05-16T05:43:58.273Z,71.70
2018-05-16T05:45:59.581Z,72.10
2018-05-16T05:48:00.534Z,72.10
2018-05-16T05:50:01.863Z,71.60
2018-05-16T05:52:02.807Z,71.60
2018-05-16T05:54:03.743Z,71.20
2018-05-16T05:56:04.685Z,71.70
2018-05-16T05:58:06.000Z,70.20
2018-05-16T06:00:07.199Z,70.20
2018-05-16T06:02:08.049Z,69.80
2018-05-16T06:04:09.009Z,69.60
2018-05-16T06:06:09.934Z,69.90
2018-05-16T06:08:10.894Z,70.20
2018-05-16T06:10:12.202Z,69.60
2018-05-16T06:12:13.166Z,69.60
2018-05-16T06:14:14.113Z,69.70
2018-05-16T06:16:15.411Z,69.90
2018-05-16T06:18:16.355Z,69.80
2018-05-16T06:20:17.305Z,69.00
2018-05-16T06:22:18.261Z,68.80
2018-05-16T06:24:19.587Z,68.70
2018-05-16T06:26:20.529Z,68.70
2018-05-16T06:28:21.857Z,68.40
2018-05-16T06:30:22.824Z,68.40
2018-05-16T06:32:24.130Z,68.20
2018-05-16T06:34:25.083Z,68.20
2018-05-16T06:36:26.025Z,68.50
2018-05-16T06:38:27.354Z,67.00
2018-05-16T06:40:28.282Z,67.00
2018-05-16T06:42:29.232Z,66.10
2018-05-16T06:44:30.558Z,66.30
2018-05-16T06:46:31.490Z,66.30
2018-05-16T06:48:32.618Z,66.50
2018-05-16T06:50:33.573Z,65.30
2018-05-16T06:52:34.526Z,65.10
2018-05-16T06:54:35.462Z,65.00
2018-05-16T06:56:37.038Z,65.70
2018-05-16T06:58:37.978Z,65.70
2018-05-16T07:00:38.909Z,66.30
2018-05-16T07:02:39.862Z,66.10
2018-05-16T07:04:40.822Z,65.00
2018-05-16T07:06:41.762Z,63.90
2018-05-16T07:08:43.097Z,63.20
2018-05-16T07:10:44.036Z,63.20
2018-05-16T07:12:44.976Z,62.40
2018-05-16T07:14:46.285Z,63.10
2018-05-16T07:16:47.237Z,63.10
2018-05-16T07:18:48.204Z,62.30
2018-05-16T07:20:49.118Z,63.00
2018-05-16T07:22:50.498Z,62.10
2018-05-16T07:24:51.378Z,62.10
2018-05-16T07:26:52.379Z,62.20
2018-05-16T07:28:53.329Z,59.20
2018-05-16T07:30:54.278Z,58.70
2018-05-16T07:32:55.234Z,60.10
2018-05-16T07:34:56.586Z,58.80
2018-05-16T07:36:57.896Z,58.90
2018-05-16T07:38:58.843Z,58.80
2018-05-16T07:40:59.946Z,58.70
2018-05-16T07:43:00.841Z,57.70
2018-05-16T07:45:01.806Z,58.50
2018-05-16T07:47:02.855Z,59.20
2018-05-16T07:49:03.701Z,59.10
2018-05-16T07:51:04.945Z,58.30
2018-05-16T07:53:05.869Z,57.60
2018-05-16T07:55:06.818Z,57.40
2018-05-16T07:57:07.790Z,56.90
2018-05-16T07:59:08.750Z,56.90
2018-05-16T08:01:09.691Z,57.10
2018-05-16T08:03:10.647Z,56.80
2018-05-16T08:05:11.578Z,56.20
2018-05-16T08:07:12.555Z,56.10
2018-05-16T08:09:13.503Z,56.00
2018-05-16T08:11:14.443Z,56.10
2018-05-16T08:13:15.379Z,56.20
2018-05-16T08:15:16.334Z,55.60
2018-05-16T08:17:17.315Z,55.00
2018-05-16T08:19:18.642Z,55.10
2018-05-16T08:21:19.635Z,55.10
2018-05-16T08:23:20.674Z,55.10
2018-05-16T08:25:21.842Z,54.80
2018-05-16T08:27:23.049Z,54.00
2018-05-16T08:29:24.048Z,54.40
2018-05-16T08:31:25.411Z,54.70
2018-05-16T08:33:26.373Z,54.70
2018-05-16T08:35:27.360Z,53.90
2018-05-16T08:37:28.736Z,53.30
2018-05-16T08:39:30.050Z,53.60
2018-05-16T08:41:31.350Z,53.40
2018-05-16T08:43:32.308Z,53.40
2018-05-16T08:45:33.258Z,53.40
2018-05-16T08:47:34.592Z,54.40
2018-05-16T08:49:35.923Z,53.80
2018-05-16T08:51:37.145Z,53.80
2018-05-16T08:53:38.094Z,53.70
2018-05-16T08:55:39.031Z,54.60
2018-05-16T08:57:39.965Z,53.70
2018-05-16T08:59:41.071Z,53.30
2018-05-16T09:01:42.014Z,52.80
2018-05-16T09:03:42.957Z,53.10
2018-05-16T09:05:43.906Z,52.30
2018-05-16T09:07:44.862Z,52.10
2018-05-16T09:09:46.178Z,52.50
2018-05-16T09:11:47.123Z,52.50
2018-05-16T09:13:48.440Z,52.00
2018-05-16T09:15:49.404Z,52.00
2018-05-16T09:17:50.714Z,52.60
2018-05-16T09:19:51.838Z,52.60
2018-05-16T09:21:52.779Z,51.70
2018-05-16T09:23:53.734Z,50.90
2018-05-16T09:25:54.692Z,51.40
2018-05-16T09:27:56.003Z,51.70
2018-05-16T09:29:56.949Z,51.70
2018-05-16T09:31:58.308Z,51.60
2018-05-16T09:33:59.636Z,51.60
2018-05-16T09:36:00.573Z,51.70
2018-05-16T09:38:01.629Z,51.90
2018-05-16T09:40:02.512Z,51.40
2018-05-16T09:42:03.469Z,50.30
2018-05-16T09:44:04.414Z,50.10
2018-05-16T09:46:05.746Z,49.40
2018-05-16T09:48:06.723Z,49.40
2018-05-16T09:50:07.670Z,50.30
2018-05-16T09:52:08.622Z,50.00
2018-05-16T09:54:09.606Z,49.60
2018-05-16T09:56:10.929Z,48.50
2018-05-16T09:58:11.866Z,48.50
2018-05-16T10:00:12.819Z,48.30
2018-05-16T10:02:14.154Z,47.60
2018-05-16T10:04:15.461Z,46.40
2018-05-16T10:06:16.431Z,46.40
2018-05-16T10:08:17.741Z,47.90
2018-05-16T10:10:18.685Z,47.90
2018-05-16T10:12:19.658Z,46.20
2018-05-16T10:14:20.728Z,46.20
2018-05-16T10:16:21.656Z,47.10
2018-05-16T10:18:22.614Z,46.50
2018-05-16T10:20:23.567Z,45.70
2018-05-16T10:22:24.539Z,45.70
2018-05-16T10:24:25.491Z,46.10
2018-05-16T10:26:26.422Z,45.60
2018-05-16T10:28:27.365Z,45.70
2018-05-16T10:30:28.634Z,45.50
2018-05-16T10:32:29.566Z,45.20
2018-05-16T10:34:30.593Z,46.20
2018-05-16T10:36:31.958Z,45.30
2018-05-16T10:38:32.922Z,45.30
2018-05-16T10:40:33.867Z,45.00
2018-05-16T10:42:34.838Z,43.90
2018-05-16T10:44:35.811Z,44.70
2018-05-16T10:46:37.142Z,45.60
2018-05-16T10:48:38.166Z,45.60
2018-05-16T10:50:39.141Z,45.40
2018-05-16T10:52:40.106Z,44.70
2018-05-16T10:54:41.050Z,44.70
2018-05-16T10:56:42.092Z,44.20
2018-05-16T10:58:43.046Z,44.30
2018-05-16T11:00:44.004Z,44.50
2018-05-16T11:02:45.347Z,43.70
2018-05-16T11:04:46.665Z,43.50
2018-05-16T11:06:47.610Z,43.50
2018-05-16T11:08:48.942Z,43.70
2018-05-16T11:10:49.915Z,43.70
2018-05-16T11:12:50.860Z,44.00
2018-05-16T11:14:51.818Z,43.40
2018-05-16T11:16:52.768Z,42.40
2018-05-16T11:18:53.898Z,43.00
2018-05-16T11:20:54.870Z,43.40
2018-05-16T11:22:56.193Z,42.80
2018-05-16T11:24:57.152Z,42.80
2018-05-16T11:26:58.478Z,41.60
2018-05-16T11:28:59.425Z,41.60
2018-05-16T11:31:00.743Z,40.70
2018-05-16T11:33:01.717Z,40.70
2018-05-16T11:35:02.667Z,40.30
2018-05-16T11:37:03.625Z,40.80
2018-05-16T11:39:04.593Z,39.10
2018-05-16T11:41:05.913Z,38.30
2018-05-16T11:43:06.866Z,39.10
2018-05-16T11:45:07.814Z,38.80
2018-05-16T11:47:09.130Z,38.30
2018-05-16T11:49:10.078Z,38.30
2018-05-16T11:51:11.033Z,38.60
2018-05-16T11:53:12.346Z,37.90
2018-05-16T11:55:13.458Z,37.90
2018-05-16T11:57:14.408Z,36.60
2018-05-16T11:59:15.365Z,36.20
2018-05-16T12:01:16.316Z,37.20
2018-05-16T12:03:17.630Z,36.50
2018-05-16T12:05:18.585Z,36.50
2018-05-16T12:07:20.087Z,37.60
2018-05-16T12:09:21.039Z,37.60
2018-05-16T12:11:21.998Z,35.20
2018-05-16T12:13:23.347Z,33.30
2018-05-16T12:15:24.668Z,34.40
2018-05-16T12:17:25.617Z,34.40
2018-05-16T12:19:26.948Z,33.80
2018-05-16T12:21:27.890Z,33.80
2018-05-16T12:23:29.232Z,33.70
2018-05-16T12:25:30.551Z,34.60
2018-05-16T12:27:31.501Z,34.60
2018-05-16T12:29:32.610Z,34.00
2018-05-16T12:31:33.567Z,33.20
2018-05-16T12:33:34.514Z,32.70
2018-05-16T12:35:35.838Z,32.90
2018-05-16T12:37:36.914Z,32.90
2018-05-16T12:39:37.919Z,33.00
2018-05-16T12:41:38.857Z,32.40
2018-05-16T12:43:39.804Z,32.40
2018-05-16T12:45:41.151Z,33.20
2018-05-16T12:47:42.491Z,33.60
2018-05-16T12:49:43.812Z,33.20
2018-05-16T12:51:44.782Z,33.20
2018-05-16T12:53:45.738Z,32.90
2018-05-16T12:55:46.801Z,31.40
2018-05-16T12:57:48.233Z,32.00
2018-05-16T12:59:49.188Z,32.10
2018-05-16T13:01:50.139Z,32.00
2018-05-16T13:03:51.204Z,32.40
2018-05-16T13:05:52.166Z,31.90
2018-05-16T13:07:53.129Z,31.50
2018-05-16T13:09:54.126Z,30.90
2018-05-16T13:11:55.078Z,31.10
2018-05-16T13:13:56.028Z,30.80
2018-05-16T13:15:57.159Z,30.50
2018-05-16T13:17:58.218Z,31.00
2018-05-16T13:19:59.461Z,30.40
2018-05-16T13:22:01.112Z,30.40
2018-05-16T13:24:02.111Z,29.70
2018-05-16T13:26:03.167Z,30.00
2018-05-16T13:28:04.107Z,30.20
2018-05-16T13:30:05.829Z,30.10
2018-05-16T13:32:06.855Z,30.90
2018-05-16T13:34:07.843Z,30.00
2018-05-16T13:36:08.839Z,29.40
2018-05-16T13:38:10.108Z,30.00
2018-05-16T13:40:11.058Z,30.00
2018-05-16T13:42:12.369Z,29.00
2018-05-16T13:44:13.335Z,29.00
2018-05-16T13:46:14.658Z,29.10
2018-05-16T13:48:15.602Z,29.10
2018-05-16T13:50:16.559Z,28.60
2018-05-16T13:52:18.266Z,28.60
2018-05-16T13:54:19.240Z,28.60
2018-05-16T13:56:20.590Z,28.00
2018-05-16T13:58:21.932Z,26.90
2018-05-16T14:00:23.285Z,26.50
2018-05-16T14:02:24.288Z,26.50
2018-05-16T14:04:25.818Z,25.70
2018-05-16T14:06:33.780Z,26.30
2018-05-16T14:08:34.687Z,26.70
2018-05-16T14:10:36.173Z,27.40
2018-05-16T14:12:37.194Z,27.40
2018-05-16T14:14:38.171Z,27.70
2018-05-16T14:16:39.150Z,28.00
2018-05-16T14:18:40.213Z,27.40
2018-05-16T14:20:41.429Z,28.00
2018-05-16T14:22:42.423Z,28.90
2018-05-16T14:24:43.407Z,29.10
2018-05-16T14:26:44.407Z,28.40
2018-05-16T14:28:45.393Z,27.90
2018-05-16T14:30:46.695Z,28.10
2018-05-16T14:32:48.088Z,28.90
2018-05-16T14:34:49.063Z,28.90
2018-05-16T14:36:50.433Z,30.90
2018-05-16T14:38:51.627Z,30.90
2018-05-16T14:40:52.668Z,30.80
2018-05-16T14:42:54.204Z,30.40
2018-05-16T14:44:55.158Z,31.30
2018-05-16T14:46:56.132Z,31.80
2018-05-16T14:48:57.082Z,32.60
2018-05-16T14:50:58.051Z,32.60
2018-05-16T14:52:59.006Z,33.30
2018-05-16T14:55:00.336Z,33.50
2018-05-16T14:57:01.296Z,33.50
2018-05-16T14:59:02.687Z,34.50
2018-05-16T15:01:03.655Z,34.60
2018-05-16T15:03:04.696Z,35.60
2018-05-16T15:05:05.638Z,36.10
2018-05-16T15:07:07.477Z,36.80
2018-05-16T15:09:08.422Z,36.80
2018-05-16T15:11:09.729Z,37.40
2018-05-16T15:13:10.700Z,37.40
2018-05-16T15:15:12.026Z,37.90
2018-05-16T15:17:12.976Z,37.90
2018-05-16T15:19:14.304Z,38.50
2018-05-16T15:21:15.338Z,38.50
2018-05-16T15:23:16.607Z,38.80
2018-05-16T15:25:17.962Z,38.70
2018-05-16T15:27:18.998Z,38.70
2018-05-16T15:29:19.881Z,38.70
2018-05-16T15:31:20.852Z,38.90
2018-05-16T15:33:22.178Z,38.70
2018-05-16T15:35:23.120Z,38.70
2018-05-16T15:37:24.451Z,39.00
2018-05-16T15:39:25.391Z,39.00
2018-05-16T15:41:26.717Z,40.70
2018-05-16T15:43:27.683Z,40.70
2018-05-16T15:45:28.993Z,41.30
2018-05-16T15:47:29.939Z,41.30
2018-05-16T15:49:30.916Z,40.90
2018-05-16T15:51:31.863Z,41.10
2018-05-16T15:53:32.805Z,40.80
2018-05-16T15:55:33.765Z,41.10
2018-05-16T15:57:34.717Z,41.10
2018-05-16T15:59:36.054Z,41.10
2018-05-16T16:01:46.754Z,41.10
2018-05-16T16:03:47.723Z,41.20
2018-05-16T16:05:48.818Z,41.40
2018-05-16T16:07:49.757Z,41.90
2018-05-16T16:09:50.709Z,42.40
2018-05-16T16:11:51.674Z,42.30
2018-05-16T16:13:52.633Z,42.50
2018-05-16T16:15:53.573Z,42.20
2018-05-16T16:17:55.178Z,42.00
2018-05-16T16:19:56.201Z,41.90
2018-05-16T16:21:57.154Z,42.20
2018-05-16T16:23:58.127Z,42.10
2018-05-16T16:25:59.815Z,42.30
2018-05-16T16:28:00.750Z,42.30
2018-05-16T16:30:01.716Z,42.60
2018-05-16T16:32:02.829Z,43.10
2018-05-16T16:34:03.955Z,43.40
2018-05-16T16:36:04.926Z,43.70
2018-05-16T16:38:05.879Z,44.10
2018-05-16T16:40:06.811Z,44.50
2018-05-16T16:42:07.783Z,44.50
2018-05-16T16:44:08.719Z,44.70
2018-05-16T16:46:09.653Z,44.80
2018-05-16T16:48:10.628Z,45.10
2018-05-16T16:50:11.584Z,45.30
2018-05-16T16:52:13.015Z,44.80
2018-05-16T16:54:13.978Z,44.20
2018-05-16T16:56:15.293Z,44.10
2018-05-16T16:58:16.226Z,44.10
2018-05-16T17:00:17.213Z,43.40
2018-05-16T17:02:18.162Z,43.40
2018-05-16T17:04:19.107Z,43.20
2018-05-16T17:08:22.771Z,43.90
2018-05-16T17:10:24.474Z,43.30
2018-05-16T17:12:25.413Z,43.20
2018-05-16T17:14:26.373Z,43.90
2018-05-16T17:16:27.322Z,43.80
2018-05-16T17:18:28.626Z,44.80
2018-05-16T17:20:29.599Z,44.80
2018-05-16T17:22:30.937Z,45.40
2018-05-16T17:24:32.241Z,45.30
2018-05-16T17:26:33.238Z,45.30
2018-05-16T17:28:34.233Z,45.80
2018-05-16T17:30:35.757Z,45.70
2018-05-16T17:32:36.735Z,45.80
2018-05-16T17:34:38.114Z,46.20
2018-05-16T17:36:39.122Z,46.20
2018-05-16T17:38:40.439Z,44.60
2018-05-16T17:40:41.395Z,44.60
2018-05-16T17:42:42.703Z,44.30
2018-05-16T17:44:43.655Z,44.30
2018-05-16T17:46:44.761Z,44.20
2018-05-16T17:48:45.695Z,44.70
2018-05-16T17:50:46.656Z,45.40
2018-05-16T17:52:47.610Z,45.70
2018-05-16T17:54:48.939Z,46.20
2018-05-16T17:56:49.877Z,46.20
2018-05-16T17:58:51.199Z,48.00
2018-05-16T18:00:52.189Z,48.00
2018-05-16T18:02:53.126Z,49.10
2018-05-16T18:04:54.069Z,49.80
2018-05-16T18:06:55.047Z,50.50
2018-05-16T18:08:56.024Z,50.90
2018-05-16T18:10:57.033Z,51.90
2018-05-16T18:26:32.146Z,57.50
2018-05-16T18:28:33.461Z,58.70
2018-05-16T18:32:55.917Z,60.40
2018-05-16T18:34:56.851Z,60.40
2018-05-16T18:36:57.814Z,60.50
2018-05-16T18:38:59.161Z,61.40
2018-05-16T18:41:00.100Z,61.40
2018-05-16T18:43:01.061Z,62.20
2018-05-16T18:45:02.190Z,62.10
2018-05-16T18:47:03.127Z,61.90
2018-05-16T18:49:04.062Z,62.30
2018-05-16T18:51:05.332Z,62.80
2018-05-16T18:53:06.278Z,63.40
2018-05-16T18:55:07.237Z,63.20
2018-05-16T18:57:08.552Z,63.50
2018-05-16T18:59:09.494Z,63.50
2018-05-16T19:01:10.455Z,63.40
2018-05-16T19:03:11.433Z,63.50
2018-05-16T19:05:12.390Z,63.70
2018-05-16T19:07:13.383Z,64.00
2018-05-16T19:09:14.346Z,64.10
2018-05-16T19:11:15.293Z,64.00
2018-05-16T19:13:16.222Z,64.70
2018-05-16T19:15:17.194Z,64.90
2018-05-16T19:17:18.509Z,63.80
2018-05-16T19:19:19.447Z,63.80
2018-05-16T19:21:20.403Z,64.20
2018-05-16T19:23:21.346Z,63.70
2018-05-16T19:25:22.297Z,63.00
2018-05-16T19:27:23.360Z,62.20
2018-05-16T19:29:24.294Z,61.40
2018-05-16T19:31:25.590Z,61.50
2018-05-16T19:33:26.576Z,61.00
2018-05-16T19:35:27.521Z,60.80
2018-05-16T19:37:28.471Z,60.50
2018-05-16T19:39:29.798Z,60.80
2018-05-16T19:41:30.754Z,60.80
2018-05-16T19:43:32.075Z,60.70
2018-05-16T19:45:33.044Z,60.70
2018-05-16T19:47:33.998Z,60.60
2018-05-16T19:49:34.942Z,60.90
2018-05-16T19:51:35.899Z,60.60
2018-05-16T19:53:36.839Z,60.90
2018-05-16T19:55:37.788Z,60.80
2018-05-16T19:57:38.724Z,61.50
2018-05-16T19:59:39.686Z,61.50
2018-05-16T20:01:40.655Z,61.50
2018-05-16T20:03:41.602Z,61.60
2018-05-16T20:05:42.583Z,62.00
2018-05-16T20:07:43.537Z,62.30
2018-05-16T20:09:44.478Z,62.30
2018-05-16T20:11:45.425Z,62.10
2018-05-16T20:13:46.381Z,62.10
2018-05-16T20:15:47.318Z,62.60
2018-05-16T20:17:48.289Z,62.40
2018-05-16T20:19:49.234Z,62.60
2018-05-16T20:21:50.170Z,62.60
2018-05-16T20:23:51.142Z,62.40
2018-05-16T20:25:52.065Z,62.90
2018-05-16T20:27:53.006Z,63.00
2018-05-16T20:29:53.957Z,62.60
2018-05-16T20:31:54.923Z,62.90
2018-05-16T20:33:55.858Z,63.20
2018-05-16T20:35:57.184Z,63.00
2018-05-16T20:37:58.514Z,63.30
2018-05-16T20:39:59.522Z,63.40
2018-05-16T20:42:00.777Z,63.20
2018-05-16T20:44:01.747Z,63.20
2018-05-16T20:46:03.060Z,64.70
2018-05-16T20:48:04.023Z,64.70
2018-05-16T20:50:05.365Z,64.40
2018-05-16T20:52:06.684Z,64.00
2018-05-16T20:54:07.666Z,64.00
2018-05-16T20:56:08.614Z,64.10
2018-05-16T20:58:09.584Z,63.60
2018-05-16T21:00:10.818Z,63.40
2018-05-16T21:02:11.768Z,64.50
2018-05-16T21:04:12.710Z,64.60
2018-05-16T21:06:13.656Z,64.60
2018-05-16T21:08:14.965Z,65.10
2018-05-16T21:10:15.918Z,65.10
2018-05-16T21:12:17.228Z,64.20
2018-05-16T21:14:18.172Z,64.20
2018-05-16T21:16:19.143Z,64.10
2018-05-16T21:18:20.486Z,64.10
2018-05-16T21:20:21.814Z,64.20
2018-05-16T21:22:22.930Z,64.20
2018-05-16T21:24:23.885Z,64.30
2018-05-16T21:26:25.351Z,64.70
2018-05-16T21:28:26.674Z,64.70
2018-05-16T21:30:27.605Z,64.70
2018-05-16T21:32:28.553Z,64.70
2018-05-16T21:34:29.900Z,64.60
2018-05-16T21:36:31.223Z,65.00
2018-05-16T21:38:32.165Z,65.00
2018-05-16T21:40:33.498Z,65.60
2018-05-16T21:42:34.447Z,65.60
2018-05-16T21:44:35.765Z,65.60
2018-05-16T21:46:36.718Z,65.60
2018-05-16T21:48:38.058Z,65.70
2018-05-16T21:50:39.010Z,65.70
2018-05-16T21:52:40.314Z,65.80
2018-05-16T21:54:41.285Z,65.80
2018-05-16T21:56:42.622Z,65.70
2018-05-16T21:58:43.551Z,65.70
2018-05-16T22:00:44.874Z,65.80
2018-05-16T22:02:45.820Z,65.80
2018-05-16T22:04:46.774Z,66.00
2018-05-16T22:06:48.094Z,66.00
2018-05-16T22:08:49.043Z,66.00
2018-05-16T22:10:50.366Z,66.90
2018-05-16T22:12:51.424Z,66.90
2018-05-16T22:14:52.745Z,67.00
2018-05-16T22:16:53.683Z,67.00
2018-05-16T22:18:54.626Z,67.30
2018-05-16T22:20:55.941Z,67.70
2018-05-16T22:22:56.895Z,67.70
2018-05-16T22:24:57.867Z,68.20
2018-05-16T22:26:58.806Z,67.60
2018-05-16T22:28:59.753Z,67.70
2018-05-16T22:31:06.982Z,68.50
2018-05-16T22:33:14.092Z,68.50
2018-05-16T22:35:21.350Z,68.90
2018-05-16T22:37:28.749Z,68.60
2018-05-16T22:39:35.925Z,68.60
2018-05-16T22:41:43.266Z,68.90
2018-05-16T22:46:23.365Z,68.80
2018-05-16T22:48:24.682Z,69.50
2018-05-16T22:50:25.639Z,69.50
2018-05-16T22:52:26.966Z,70.40
2018-05-16T22:54:27.915Z,70.40
2018-05-16T22:56:29.238Z,70.00
2018-05-16T22:58:31.577Z,70.00
2018-05-16T23:00:32.518Z,70.00
2018-05-16T23:02:33.463Z,70.30
2018-05-16T23:04:34.425Z,70.20
2018-05-16T23:06:35.861Z,69.70
2018-05-16T23:08:36.803Z,69.70
2018-05-16T23:10:38.122Z,70.80
2018-05-16T23:12:39.073Z,70.80
2018-05-16T23:14:40.020Z,70.80
2018-05-16T23:16:41.342Z,70.60
2018-05-16T23:18:42.298Z,70.60
2018-05-16T23:20:43.610Z,71.00
2018-05-16T23:22:44.842Z,71.00
2018-05-16T23:24:45.788Z,71.10
2018-05-16T23:26:46.730Z,70.60
2018-05-16T23:28:47.693Z,71.30
2018-05-16T23:30:49.077Z,71.10
2018-05-16T23:32:49.950Z,71.10
2018-05-16T23:34:50.892Z,71.20
2018-05-16T23:36:52.193Z,71.50
2018-05-16T23:38:53.126Z,71.50
2018-05-16T23:40:54.243Z,72.40
2018-05-16T23:42:55.197Z,72.10
2018-05-16T23:44:56.151Z,71.70
2018-05-16T23:46:57.374Z,71.50
2018-05-16T23:48:58.319Z,71.60
2018-05-16T23:50:59.270Z,71.90
2018-05-16T23:53:00.301Z,72.20
2018-05-16T23:55:01.249Z,73.10
2018-05-16T23:57:02.567Z,72.90
2018-05-16T23:59:03.871Z,72.90
